sensor_id;sensor_type;location;lat;lon;timestamp;P1;durP1;ratioP1;P2;durP2;ratioP2
12484;SDS011;6307;46.804;11.580;2022-07-06T00:01:22;1.50;;;1.40;;
12484;SDS011;6307;46.804;11.580;2022-07-06T00:03:49;4.03;;;1.70;;
12484;SDS011;6307;46.804;11.580;2022-07-06T00:06:15;3.10;;;1.50;;
12484;SDS011;6307;46.804;11.580;2022-07-06T00:08:42;2.67;;;1.70;;
12484;SDS011;6307;46.804;11.580;2022-07-06T00:11:09;1.97;;;1.30;;
12484;SDS011;6307;46.804;11.580;2022-07-06T00:13:35;3.07;;;1.50;;
12484;SDS011;6307;46.804;11.580;2022-07-06T00:16:02;2.43;;;1.70;;
12484;SDS011;6307;46.804;11.580;2022-07-06T00:18:29;2.77;;;1.83;;
12484;SDS011;6307;46.804;11.580;2022-07-06T00:20:55;1.63;;;1.53;;
12484;SDS011;6307;46.804;11.580;2022-07-06T00:23:22;3.00;;;1.60;;
12484;SDS011;6307;46.804;11.580;2022-07-06T00:25:48;1.77;;;1.40;;
12484;SDS011;6307;46.804;11.580;2022-07-06T00:28:14;2.57;;;1.60;;
12484;SDS011;6307;46.804;11.580;2022-07-06T00:30:41;2.23;;;1.67;;
12484;SDS011;6307;46.804;11.580;2022-07-06T00:33:07;4.70;;;1.87;;
12484;SDS011;6307;46.804;11.580;2022-07-06T00:35:33;4.67;;;1.63;;
12484;SDS011;6307;46.804;11.580;2022-07-06T00:38:00;1.53;;;1.40;;
12484;SDS011;6307;46.804;11.580;2022-07-06T00:40:26;1.70;;;1.53;;
12484;SDS011;6307;46.804;11.580;2022-07-06T00:42:54;2.87;;;1.50;;
12484;SDS011;6307;46.804;11.580;2022-07-06T00:45:21;2.20;;;1.57;;
12484;SDS011;6307;46.804;11.580;2022-07-06T00:47:47;2.37;;;1.80;;
12484;SDS011;6307;46.804;11.580;2022-07-06T00:50:15;1.77;;;1.50;;
12484;SDS011;6307;46.804;11.580;2022-07-06T00:52:46;3.10;;;1.70;;
12484;SDS011;6307;46.804;11.580;2022-07-06T00:55:21;2.80;;;1.83;;
12484;SDS011;6307;46.804;11.580;2022-07-06T00:57:51;2.20;;;1.70;;
12484;SDS011;6307;46.804;11.580;2022-07-06T01:00:19;2.57;;;1.73;;
12484;SDS011;6307;46.804;11.580;2022-07-06T01:02:49;5.07;;;1.70;;
12484;SDS011;6307;46.804;11.580;2022-07-06T01:05:17;1.97;;;1.40;;
12484;SDS011;6307;46.804;11.580;2022-07-06T01:07:45;1.70;;;1.50;;
12484;SDS011;6307;46.804;11.580;2022-07-06T01:10:17;3.57;;;1.70;;
12484;SDS011;6307;46.804;11.580;2022-07-06T01:12:45;2.30;;;1.80;;
12484;SDS011;6307;46.804;11.580;2022-07-06T01:15:17;1.97;;;1.80;;
12484;SDS011;6307;46.804;11.580;2022-07-06T01:17:47;3.60;;;1.70;;
12484;SDS011;6307;46.804;11.580;2022-07-06T01:20:14;4.83;;;1.50;;
12484;SDS011;6307;46.804;11.580;2022-07-06T01:22:46;2.93;;;1.80;;
12484;SDS011;6307;46.804;11.580;2022-07-06T01:25:14;3.07;;;1.63;;
12484;SDS011;6307;46.804;11.580;2022-07-06T01:27:41;3.90;;;1.93;;
12484;SDS011;6307;46.804;11.580;2022-07-06T01:30:10;4.30;;;1.73;;
12484;SDS011;6307;46.804;11.580;2022-07-06T01:32:44;2.10;;;1.60;;
12484;SDS011;6307;46.804;11.580;2022-07-06T01:35:11;3.37;;;1.87;;
12484;SDS011;6307;46.804;11.580;2022-07-06T01:37:40;1.67;;;1.40;;
12484;SDS011;6307;46.804;11.580;2022-07-06T01:40:08;2.80;;;1.90;;
12484;SDS011;6307;46.804;11.580;2022-07-06T01:42:36;4.97;;;1.87;;
12484;SDS011;6307;46.804;11.580;2022-07-06T01:45:04;6.13;;;1.70;;
12484;SDS011;6307;46.804;11.580;2022-07-06T01:47:31;4.27;;;2.20;;
12484;SDS011;6307;46.804;11.580;2022-07-06T01:49:58;4.03;;;1.70;;
12484;SDS011;6307;46.804;11.580;2022-07-06T01:52:29;2.27;;;1.77;;
12484;SDS011;6307;46.804;11.580;2022-07-06T01:54:55;3.67;;;1.70;;
12484;SDS011;6307;46.804;11.580;2022-07-06T01:57:22;5.50;;;2.00;;
12484;SDS011;6307;46.804;11.580;2022-07-06T01:59:49;3.33;;;1.80;;
12484;SDS011;6307;46.804;11.580;2022-07-06T02:02:15;3.50;;;1.80;;
12484;SDS011;6307;46.804;11.580;2022-07-06T02:04:42;4.33;;;1.70;;
12484;SDS011;6307;46.804;11.580;2022-07-06T02:07:08;2.73;;;1.97;;
12484;SDS011;6307;46.804;11.580;2022-07-06T02:09:35;3.27;;;1.83;;
12484;SDS011;6307;46.804;11.580;2022-07-06T02:12:01;2.47;;;1.80;;
12484;SDS011;6307;46.804;11.580;2022-07-06T02:14:27;1.97;;;1.67;;
12484;SDS011;6307;46.804;11.580;2022-07-06T02:16:53;2.47;;;1.83;;
12484;SDS011;6307;46.804;11.580;2022-07-06T02:19:19;3.53;;;1.63;;
12484;SDS011;6307;46.804;11.580;2022-07-06T02:21:46;3.30;;;2.00;;
12484;SDS011;6307;46.804;11.580;2022-07-06T02:24:12;1.63;;;1.53;;
12484;SDS011;6307;46.804;11.580;2022-07-06T02:26:38;2.03;;;1.67;;
12484;SDS011;6307;46.804;11.580;2022-07-06T02:29:04;2.63;;;1.90;;
12484;SDS011;6307;46.804;11.580;2022-07-06T02:31:30;3.50;;;1.80;;
12484;SDS011;6307;46.804;11.580;2022-07-06T02:33:56;3.00;;;1.87;;
12484;SDS011;6307;46.804;11.580;2022-07-06T02:36:22;2.07;;;1.77;;
12484;SDS011;6307;46.804;11.580;2022-07-06T02:38:48;2.10;;;1.70;;
12484;SDS011;6307;46.804;11.580;2022-07-06T02:41:15;5.50;;;1.90;;
12484;SDS011;6307;46.804;11.580;2022-07-06T02:43:41;5.93;;;2.10;;
12484;SDS011;6307;46.804;11.580;2022-07-06T02:46:07;2.23;;;1.90;;
12484;SDS011;6307;46.804;11.580;2022-07-06T02:48:33;3.63;;;1.83;;
12484;SDS011;6307;46.804;11.580;2022-07-06T02:50:59;3.73;;;1.70;;
12484;SDS011;6307;46.804;11.580;2022-07-06T02:53:25;4.10;;;1.97;;
12484;SDS011;6307;46.804;11.580;2022-07-06T02:55:52;3.20;;;1.90;;
12484;SDS011;6307;46.804;11.580;2022-07-06T02:58:18;3.00;;;2.10;;
12484;SDS011;6307;46.804;11.580;2022-07-06T03:00:44;3.83;;;1.80;;
12484;SDS011;6307;46.804;11.580;2022-07-06T03:03:10;2.10;;;1.90;;
12484;SDS011;6307;46.804;11.580;2022-07-06T03:05:36;3.47;;;1.70;;
12484;SDS011;6307;46.804;11.580;2022-07-06T03:08:02;2.80;;;1.70;;
12484;SDS011;6307;46.804;11.580;2022-07-06T03:10:29;3.63;;;2.00;;
12484;SDS011;6307;46.804;11.580;2022-07-06T03:12:55;6.63;;;1.90;;
12484;SDS011;6307;46.804;11.580;2022-07-06T03:15:21;2.40;;;1.90;;
12484;SDS011;6307;46.804;11.580;2022-07-06T03:17:47;2.70;;;1.90;;
12484;SDS011;6307;46.804;11.580;2022-07-06T03:20:13;2.73;;;1.80;;
12484;SDS011;6307;46.804;11.580;2022-07-06T03:22:40;3.10;;;1.90;;
12484;SDS011;6307;46.804;11.580;2022-07-06T03:25:06;3.20;;;1.80;;
12484;SDS011;6307;46.804;11.580;2022-07-06T03:27:33;6.10;;;2.10;;
12484;SDS011;6307;46.804;11.580;2022-07-06T03:30:01;2.97;;;1.90;;
12484;SDS011;6307;46.804;11.580;2022-07-06T03:32:28;6.43;;;1.93;;
12484;SDS011;6307;46.804;11.580;2022-07-06T03:34:54;2.23;;;2.00;;
12484;SDS011;6307;46.804;11.580;2022-07-06T03:37:20;3.07;;;2.07;;
12484;SDS011;6307;46.804;11.580;2022-07-06T03:39:46;3.03;;;2.27;;
12484;SDS011;6307;46.804;11.580;2022-07-06T03:42:12;6.03;;;1.80;;
12484;SDS011;6307;46.804;11.580;2022-07-06T03:44:39;2.40;;;1.73;;
12484;SDS011;6307;46.804;11.580;2022-07-06T03:47:05;3.57;;;1.97;;
12484;SDS011;6307;46.804;11.580;2022-07-06T03:49:31;3.00;;;2.00;;
12484;SDS011;6307;46.804;11.580;2022-07-06T03:51:57;3.27;;;1.80;;
12484;SDS011;6307;46.804;11.580;2022-07-06T03:54:23;4.20;;;2.10;;
12484;SDS011;6307;46.804;11.580;2022-07-06T03:56:49;3.13;;;1.93;;
12484;SDS011;6307;46.804;11.580;2022-07-06T03:59:15;3.77;;;2.10;;
12484;SDS011;6307;46.804;11.580;2022-07-06T04:01:41;2.43;;;2.00;;
12484;SDS011;6307;46.804;11.580;2022-07-06T04:04:08;1.87;;;1.70;;
12484;SDS011;6307;46.804;11.580;2022-07-06T04:06:34;2.10;;;1.90;;
12484;SDS011;6307;46.804;11.580;2022-07-06T04:09:00;2.73;;;1.90;;
12484;SDS011;6307;46.804;11.580;2022-07-06T04:11:26;5.90;;;2.10;;
12484;SDS011;6307;46.804;11.580;2022-07-06T04:13:53;4.53;;;2.00;;
12484;SDS011;6307;46.804;11.580;2022-07-06T04:16:19;3.47;;;2.10;;
12484;SDS011;6307;46.804;11.580;2022-07-06T04:18:45;1.93;;;1.80;;
12484;SDS011;6307;46.804;11.580;2022-07-06T04:21:12;3.63;;;1.90;;
12484;SDS011;6307;46.804;11.580;2022-07-06T04:23:38;2.47;;;1.87;;
12484;SDS011;6307;46.804;11.580;2022-07-06T04:26:04;3.93;;;1.80;;
12484;SDS011;6307;46.804;11.580;2022-07-06T04:28:30;2.20;;;2.00;;
12484;SDS011;6307;46.804;11.580;2022-07-06T04:30:56;2.23;;;1.97;;
12484;SDS011;6307;46.804;11.580;2022-07-06T04:33:23;3.77;;;1.87;;
12484;SDS011;6307;46.804;11.580;2022-07-06T04:35:49;3.30;;;1.80;;
12484;SDS011;6307;46.804;11.580;2022-07-06T04:38:16;7.60;;;2.10;;
12484;SDS011;6307;46.804;11.580;2022-07-06T04:40:42;4.40;;;2.00;;
12484;SDS011;6307;46.804;11.580;2022-07-06T04:43:11;2.27;;;1.83;;
12484;SDS011;6307;46.804;11.580;2022-07-06T04:45:37;7.03;;;2.20;;
12484;SDS011;6307;46.804;11.580;2022-07-06T04:48:04;3.60;;;2.10;;
12484;SDS011;6307;46.804;11.580;2022-07-06T04:50:31;1.97;;;1.77;;
12484;SDS011;6307;46.804;11.580;2022-07-06T04:52:58;2.87;;;1.80;;
12484;SDS011;6307;46.804;11.580;2022-07-06T04:55:24;4.07;;;1.93;;
12484;SDS011;6307;46.804;11.580;2022-07-06T04:57:50;2.70;;;1.90;;
12484;SDS011;6307;46.804;11.580;2022-07-06T05:00:16;4.23;;;2.20;;
12484;SDS011;6307;46.804;11.580;2022-07-06T05:02:43;3.33;;;2.30;;
12484;SDS011;6307;46.804;11.580;2022-07-06T05:05:09;3.03;;;2.10;;
12484;SDS011;6307;46.804;11.580;2022-07-06T05:07:35;4.00;;;2.13;;
12484;SDS011;6307;46.804;11.580;2022-07-06T05:10:05;4.10;;;1.70;;
12484;SDS011;6307;46.804;11.580;2022-07-06T05:12:35;5.77;;;2.43;;
12484;SDS011;6307;46.804;11.580;2022-07-06T05:15:02;4.50;;;1.90;;
12484;SDS011;6307;46.804;11.580;2022-07-06T05:17:30;3.37;;;2.17;;
12484;SDS011;6307;46.804;11.580;2022-07-06T05:19:56;6.03;;;2.40;;
12484;SDS011;6307;46.804;11.580;2022-07-06T05:22:22;4.13;;;2.00;;
12484;SDS011;6307;46.804;11.580;2022-07-06T05:24:49;2.67;;;2.20;;
12484;SDS011;6307;46.804;11.580;2022-07-06T05:27:16;3.17;;;2.00;;
12484;SDS011;6307;46.804;11.580;2022-07-06T05:29:42;4.83;;;2.20;;
12484;SDS011;6307;46.804;11.580;2022-07-06T05:32:08;3.03;;;2.10;;
12484;SDS011;6307;46.804;11.580;2022-07-06T05:34:35;2.27;;;2.00;;
12484;SDS011;6307;46.804;11.580;2022-07-06T05:37:03;4.50;;;2.27;;
12484;SDS011;6307;46.804;11.580;2022-07-06T05:39:29;3.47;;;1.90;;
12484;SDS011;6307;46.804;11.580;2022-07-06T05:41:55;4.40;;;2.23;;
12484;SDS011;6307;46.804;11.580;2022-07-06T05:44:21;4.07;;;1.90;;
12484;SDS011;6307;46.804;11.580;2022-07-06T05:46:47;5.97;;;2.17;;
12484;SDS011;6307;46.804;11.580;2022-07-06T05:49:13;2.90;;;2.03;;
12484;SDS011;6307;46.804;11.580;2022-07-06T05:51:58;2.93;;;2.13;;
12484;SDS011;6307;46.804;11.580;2022-07-06T05:54:24;6.03;;;1.97;;
12484;SDS011;6307;46.804;11.580;2022-07-06T05:56:50;5.00;;;1.90;;
12484;SDS011;6307;46.804;11.580;2022-07-06T05:59:16;6.30;;;1.70;;
12484;SDS011;6307;46.804;11.580;2022-07-06T06:01:43;2.63;;;1.80;;
12484;SDS011;6307;46.804;11.580;2022-07-06T06:04:09;3.27;;;1.67;;
12484;SDS011;6307;46.804;11.580;2022-07-06T06:06:35;3.07;;;1.47;;
12484;SDS011;6307;46.804;11.580;2022-07-06T06:09:01;3.97;;;1.70;;
12484;SDS011;6307;46.804;11.580;2022-07-06T06:11:27;4.23;;;1.90;;
12484;SDS011;6307;46.804;11.580;2022-07-06T06:13:53;4.97;;;1.70;;
12484;SDS011;6307;46.804;11.580;2022-07-06T06:16:19;3.63;;;1.63;;
12484;SDS011;6307;46.804;11.580;2022-07-06T06:18:46;3.00;;;1.40;;
12484;SDS011;6307;46.804;11.580;2022-07-06T06:21:12;4.53;;;1.47;;
12484;SDS011;6307;46.804;11.580;2022-07-06T06:23:38;2.63;;;1.40;;
12484;SDS011;6307;46.804;11.580;2022-07-06T06:26:04;3.23;;;1.50;;
12484;SDS011;6307;46.804;11.580;2022-07-06T06:28:30;2.50;;;1.40;;
12484;SDS011;6307;46.804;11.580;2022-07-06T06:30:56;1.50;;;1.30;;
12484;SDS011;6307;46.804;11.580;2022-07-06T06:33:23;3.53;;;1.30;;
12484;SDS011;6307;46.804;11.580;2022-07-06T06:35:50;5.27;;;1.67;;
12484;SDS011;6307;46.804;11.580;2022-07-06T06:38:18;3.53;;;1.40;;
12484;SDS011;6307;46.804;11.580;2022-07-06T06:40:45;2.27;;;1.37;;
12484;SDS011;6307;46.804;11.580;2022-07-06T06:43:12;3.70;;;1.50;;
12484;SDS011;6307;46.804;11.580;2022-07-06T06:45:39;1.73;;;1.20;;
12484;SDS011;6307;46.804;11.580;2022-07-06T06:48:05;3.23;;;1.23;;
12484;SDS011;6307;46.804;11.580;2022-07-06T06:50:32;1.90;;;1.37;;
12484;SDS011;6307;46.804;11.580;2022-07-06T06:52:58;3.03;;;1.30;;
12484;SDS011;6307;46.804;11.580;2022-07-06T06:55:25;2.03;;;1.20;;
12484;SDS011;6307;46.804;11.580;2022-07-06T06:57:51;1.83;;;1.10;;
12484;SDS011;6307;46.804;11.580;2022-07-06T07:00:17;3.83;;;1.03;;
12484;SDS011;6307;46.804;11.580;2022-07-06T07:02:44;2.77;;;1.43;;
12484;SDS011;6307;46.804;11.580;2022-07-06T07:05:12;1.50;;;1.10;;
12484;SDS011;6307;46.804;11.580;2022-07-06T07:07:38;1.70;;;1.27;;
12484;SDS011;6307;46.804;11.580;2022-07-06T07:10:04;1.77;;;1.00;;
12484;SDS011;6307;46.804;11.580;2022-07-06T07:12:32;1.73;;;1.10;;
12484;SDS011;6307;46.804;11.580;2022-07-06T07:14:59;3.97;;;1.10;;
12484;SDS011;6307;46.804;11.580;2022-07-06T07:17:26;1.30;;;1.03;;
12484;SDS011;6307;46.804;11.580;2022-07-06T07:19:52;3.10;;;1.10;;
12484;SDS011;6307;46.804;11.580;2022-07-06T07:22:18;1.53;;;1.10;;
12484;SDS011;6307;46.804;11.580;2022-07-06T07:24:44;1.90;;;1.10;;
12484;SDS011;6307;46.804;11.580;2022-07-06T07:27:10;3.90;;;1.30;;
12484;SDS011;6307;46.804;11.580;2022-07-06T07:29:36;1.50;;;1.17;;
12484;SDS011;6307;46.804;11.580;2022-07-06T07:32:03;1.03;;;0.80;;
12484;SDS011;6307;46.804;11.580;2022-07-06T07:34:29;1.97;;;1.00;;
12484;SDS011;6307;46.804;11.580;2022-07-06T07:36:55;0.97;;;0.90;;
12484;SDS011;6307;46.804;11.580;2022-07-06T07:39:21;1.10;;;0.93;;
12484;SDS011;6307;46.804;11.580;2022-07-06T07:41:47;2.00;;;1.10;;
12484;SDS011;6307;46.804;11.580;2022-07-06T07:44:15;1.23;;;0.97;;
12484;SDS011;6307;46.804;11.580;2022-07-06T07:46:42;1.17;;;0.70;;
12484;SDS011;6307;46.804;11.580;2022-07-06T07:49:08;0.93;;;0.90;;
12484;SDS011;6307;46.804;11.580;2022-07-06T07:51:34;0.77;;;0.77;;
12484;SDS011;6307;46.804;11.580;2022-07-06T07:54:00;1.00;;;0.90;;
12484;SDS011;6307;46.804;11.580;2022-07-06T07:56:27;0.83;;;0.80;;
12484;SDS011;6307;46.804;11.580;2022-07-06T07:58:53;3.10;;;0.90;;
12484;SDS011;6307;46.804;11.580;2022-07-06T08:01:19;1.27;;;0.80;;
12484;SDS011;6307;46.804;11.580;2022-07-06T08:03:45;3.53;;;0.97;;
12484;SDS011;6307;46.804;11.580;2022-07-06T08:06:11;1.40;;;0.90;;
12484;SDS011;6307;46.804;11.580;2022-07-06T08:08:37;1.27;;;0.70;;
12484;SDS011;6307;46.804;11.580;2022-07-06T08:11:03;0.80;;;0.80;;
12484;SDS011;6307;46.804;11.580;2022-07-06T08:13:30;1.70;;;1.00;;
12484;SDS011;6307;46.804;11.580;2022-07-06T08:15:56;0.80;;;0.77;;
12484;SDS011;6307;46.804;11.580;2022-07-06T08:18:22;2.67;;;0.70;;
12484;SDS011;6307;46.804;11.580;2022-07-06T08:20:48;1.27;;;0.57;;
12484;SDS011;6307;46.804;11.580;2022-07-06T08:23:14;1.77;;;0.90;;
12484;SDS011;6307;46.804;11.580;2022-07-06T08:25:40;2.50;;;0.83;;
12484;SDS011;6307;46.804;11.580;2022-07-06T08:28:06;1.53;;;0.90;;
12484;SDS011;6307;46.804;11.580;2022-07-06T08:30:33;1.10;;;0.80;;
12484;SDS011;6307;46.804;11.580;2022-07-06T08:33:00;2.67;;;0.80;;
12484;SDS011;6307;46.804;11.580;2022-07-06T08:35:27;1.47;;;0.83;;
12484;SDS011;6307;46.804;11.580;2022-07-06T08:37:53;0.87;;;0.70;;
12484;SDS011;6307;46.804;11.580;2022-07-06T08:40:19;1.00;;;0.73;;
12484;SDS011;6307;46.804;11.580;2022-07-06T08:42:45;1.70;;;0.70;;
12484;SDS011;6307;46.804;11.580;2022-07-06T08:45:18;1.20;;;0.83;;
12484;SDS011;6307;46.804;11.580;2022-07-06T08:47:45;5.10;;;0.87;;
12484;SDS011;6307;46.804;11.580;2022-07-06T08:50:15;1.70;;;0.70;;
12484;SDS011;6307;46.804;11.580;2022-07-06T08:52:41;3.73;;;0.77;;
12484;SDS011;6307;46.804;11.580;2022-07-06T08:55:08;3.00;;;0.80;;
12484;SDS011;6307;46.804;11.580;2022-07-06T08:57:35;1.37;;;0.90;;
12484;SDS011;6307;46.804;11.580;2022-07-06T09:00:04;0.70;;;0.70;;
12484;SDS011;6307;46.804;11.580;2022-07-06T09:02:33;3.37;;;1.00;;
12484;SDS011;6307;46.804;11.580;2022-07-06T09:05:01;3.10;;;0.70;;
12484;SDS011;6307;46.804;11.580;2022-07-06T09:07:29;0.97;;;0.87;;
12484;SDS011;6307;46.804;11.580;2022-07-06T09:09:56;1.20;;;0.70;;
12484;SDS011;6307;46.804;11.580;2022-07-06T09:12:28;1.23;;;0.80;;
12484;SDS011;6307;46.804;11.580;2022-07-06T09:14:55;1.20;;;0.70;;
12484;SDS011;6307;46.804;11.580;2022-07-06T09:17:26;1.33;;;0.67;;
12484;SDS011;6307;46.804;11.580;2022-07-06T09:19:55;0.90;;;0.80;;
12484;SDS011;6307;46.804;11.580;2022-07-06T09:22:29;1.60;;;0.60;;
12484;SDS011;6307;46.804;11.580;2022-07-06T09:25:01;1.90;;;1.00;;
12484;SDS011;6307;46.804;11.580;2022-07-06T09:27:43;1.77;;;0.90;;
12484;SDS011;6307;46.804;11.580;2022-07-06T09:30:19;0.60;;;0.60;;
12484;SDS011;6307;46.804;11.580;2022-07-06T09:32:48;2.47;;;0.70;;
12484;SDS011;6307;46.804;11.580;2022-07-06T09:38:02;0.60;;;0.50;;
12484;SDS011;6307;46.804;11.580;2022-07-06T09:40:37;0.67;;;0.67;;
12484;SDS011;6307;46.804;11.580;2022-07-06T09:43:08;0.50;;;0.50;;
12484;SDS011;6307;46.804;11.580;2022-07-06T09:45:49;0.60;;;0.60;;
12484;SDS011;6307;46.804;11.580;2022-07-06T09:48:21;2.60;;;0.87;;
12484;SDS011;6307;46.804;11.580;2022-07-06T09:50:53;0.63;;;0.60;;
12484;SDS011;6307;46.804;11.580;2022-07-06T09:53:23;1.03;;;0.57;;
12484;SDS011;6307;46.804;11.580;2022-07-06T09:55:52;1.20;;;0.57;;
12484;SDS011;6307;46.804;11.580;2022-07-06T09:58:20;2.13;;;0.60;;
12484;SDS011;6307;46.804;11.580;2022-07-06T10:00:48;1.07;;;0.90;;
12484;SDS011;6307;46.804;11.580;2022-07-06T10:03:16;0.63;;;0.53;;
12484;SDS011;6307;46.804;11.580;2022-07-06T10:05:43;1.37;;;0.67;;
12484;SDS011;6307;46.804;11.580;2022-07-06T10:08:13;1.33;;;0.70;;
12484;SDS011;6307;46.804;11.580;2022-07-06T10:10:41;1.70;;;0.60;;
12484;SDS011;6307;46.804;11.580;2022-07-06T10:13:09;1.47;;;0.80;;
12484;SDS011;6307;46.804;11.580;2022-07-06T10:15:39;1.50;;;0.80;;
12484;SDS011;6307;46.804;11.580;2022-07-06T10:18:07;0.67;;;0.67;;
12484;SDS011;6307;46.804;11.580;2022-07-06T10:20:35;0.60;;;0.60;;
12484;SDS011;6307;46.804;11.580;2022-07-06T10:23:06;0.60;;;0.60;;
12484;SDS011;6307;46.804;11.580;2022-07-06T10:25:34;1.10;;;0.80;;
12484;SDS011;6307;46.804;11.580;2022-07-06T10:28:01;1.30;;;0.63;;
12484;SDS011;6307;46.804;11.580;2022-07-06T10:30:28;1.37;;;0.60;;
12484;SDS011;6307;46.804;11.580;2022-07-06T10:32:57;0.70;;;0.70;;
12484;SDS011;6307;46.804;11.580;2022-07-06T10:35:25;1.50;;;0.70;;
12484;SDS011;6307;46.804;11.580;2022-07-06T10:38:04;0.60;;;0.60;;
12484;SDS011;6307;46.804;11.580;2022-07-06T10:40:35;0.53;;;0.40;;
12484;SDS011;6307;46.804;11.580;2022-07-06T10:43:22;0.77;;;0.57;;
12484;SDS011;6307;46.804;11.580;2022-07-06T10:45:56;0.70;;;0.70;;
12484;SDS011;6307;46.804;11.580;2022-07-06T10:48:22;0.50;;;0.50;;
12484;SDS011;6307;46.804;11.580;2022-07-06T10:50:53;2.10;;;0.80;;
12484;SDS011;6307;46.804;11.580;2022-07-06T10:53:25;1.17;;;0.80;;
12484;SDS011;6307;46.804;11.580;2022-07-06T10:55:56;1.07;;;0.80;;
12484;SDS011;6307;46.804;11.580;2022-07-06T11:01:18;0.83;;;0.77;;
12484;SDS011;6307;46.804;11.580;2022-07-06T11:06:24;0.93;;;0.80;;
12484;SDS011;6307;46.804;11.580;2022-07-06T11:09:08;0.60;;;0.60;;
12484;SDS011;6307;46.804;11.580;2022-07-06T11:14:05;1.90;;;0.63;;
12484;SDS011;6307;46.804;11.580;2022-07-06T11:24:17;0.77;;;0.67;;
12484;SDS011;6307;46.804;11.580;2022-07-06T11:26:46;2.43;;;0.80;;
12484;SDS011;6307;46.804;11.580;2022-07-06T11:29:14;0.60;;;0.43;;
12484;SDS011;6307;46.804;11.580;2022-07-06T11:31:44;0.70;;;0.67;;
12484;SDS011;6307;46.804;11.580;2022-07-06T11:34:17;2.20;;;0.63;;
12484;SDS011;6307;46.804;11.580;2022-07-06T11:36:46;0.70;;;0.70;;
12484;SDS011;6307;46.804;11.580;2022-07-06T11:39:13;0.50;;;0.50;;
12484;SDS011;6307;46.804;11.580;2022-07-06T11:41:40;1.27;;;0.73;;
12484;SDS011;6307;46.804;11.580;2022-07-06T11:44:07;0.80;;;0.70;;
12484;SDS011;6307;46.804;11.580;2022-07-06T11:46:34;1.90;;;0.77;;
12484;SDS011;6307;46.804;11.580;2022-07-06T11:49:08;1.03;;;0.63;;
12484;SDS011;6307;46.804;11.580;2022-07-06T11:51:35;3.47;;;0.87;;
12484;SDS011;6307;46.804;11.580;2022-07-06T11:54:11;2.07;;;0.67;;
12484;SDS011;6307;46.804;11.580;2022-07-06T11:56:53;1.50;;;0.60;;
12484;SDS011;6307;46.804;11.580;2022-07-06T11:59:25;1.07;;;0.90;;
12484;SDS011;6307;46.804;11.580;2022-07-06T12:02:06;1.17;;;0.60;;
12484;SDS011;6307;46.804;11.580;2022-07-06T12:04:36;0.70;;;0.50;;
12484;SDS011;6307;46.804;11.580;2022-07-06T12:07:11;1.30;;;0.70;;
12484;SDS011;6307;46.804;11.580;2022-07-06T12:09:40;0.90;;;0.70;;
12484;SDS011;6307;46.804;11.580;2022-07-06T12:12:09;0.90;;;0.80;;
12484;SDS011;6307;46.804;11.580;2022-07-06T12:14:38;1.00;;;0.60;;
12484;SDS011;6307;46.804;11.580;2022-07-06T12:17:07;0.63;;;0.50;;
12484;SDS011;6307;46.804;11.580;2022-07-06T12:19:36;1.70;;;0.73;;
12484;SDS011;6307;46.804;11.580;2022-07-06T12:22:03;1.70;;;0.63;;
12484;SDS011;6307;46.804;11.580;2022-07-06T12:24:32;1.10;;;0.70;;
12484;SDS011;6307;46.804;11.580;2022-07-06T12:27:10;1.33;;;0.70;;
12484;SDS011;6307;46.804;11.580;2022-07-06T12:29:41;1.60;;;0.57;;
12484;SDS011;6307;46.804;11.580;2022-07-06T12:32:13;1.67;;;0.70;;
12484;SDS011;6307;46.804;11.580;2022-07-06T12:34:44;1.30;;;0.60;;
12484;SDS011;6307;46.804;11.580;2022-07-06T12:37:11;0.90;;;0.70;;
12484;SDS011;6307;46.804;11.580;2022-07-06T12:39:42;1.03;;;0.60;;
12484;SDS011;6307;46.804;11.580;2022-07-06T12:42:13;0.83;;;0.70;;
12484;SDS011;6307;46.804;11.580;2022-07-06T12:44:43;1.03;;;0.70;;
12484;SDS011;6307;46.804;11.580;2022-07-06T12:47:24;1.80;;;0.70;;
12484;SDS011;6307;46.804;11.580;2022-07-06T12:50:04;0.70;;;0.60;;
12484;SDS011;6307;46.804;11.580;2022-07-06T12:52:35;1.00;;;0.70;;
12484;SDS011;6307;46.804;11.580;2022-07-06T12:55:02;0.70;;;0.60;;
12484;SDS011;6307;46.804;11.580;2022-07-06T12:57:47;1.87;;;0.53;;
12484;SDS011;6307;46.804;11.580;2022-07-06T13:00:14;1.47;;;0.60;;
12484;SDS011;6307;46.804;11.580;2022-07-06T13:02:44;0.83;;;0.80;;
12484;SDS011;6307;46.804;11.580;2022-07-06T13:05:14;2.03;;;0.70;;
12484;SDS011;6307;46.804;11.580;2022-07-06T13:07:46;0.67;;;0.67;;
12484;SDS011;6307;46.804;11.580;2022-07-06T13:10:14;1.03;;;0.60;;
12484;SDS011;6307;46.804;11.580;2022-07-06T13:12:41;2.07;;;0.57;;
12484;SDS011;6307;46.804;11.580;2022-07-06T13:15:08;3.83;;;1.10;;
12484;SDS011;6307;46.804;11.580;2022-07-06T13:17:36;1.63;;;0.77;;
12484;SDS011;6307;46.804;11.580;2022-07-06T13:20:03;1.07;;;0.60;;
12484;SDS011;6307;46.804;11.580;2022-07-06T13:22:34;1.13;;;0.60;;
12484;SDS011;6307;46.804;11.580;2022-07-06T13:25:01;0.70;;;0.70;;
12484;SDS011;6307;46.804;11.580;2022-07-06T13:27:27;0.83;;;0.70;;
12484;SDS011;6307;46.804;11.580;2022-07-06T13:29:54;1.83;;;0.90;;
12484;SDS011;6307;46.804;11.580;2022-07-06T13:32:20;0.60;;;0.60;;
12484;SDS011;6307;46.804;11.580;2022-07-06T13:34:47;2.30;;;0.80;;
12484;SDS011;6307;46.804;11.580;2022-07-06T13:37:13;1.63;;;0.87;;
12484;SDS011;6307;46.804;11.580;2022-07-06T13:39:39;0.57;;;0.57;;
12484;SDS011;6307;46.804;11.580;2022-07-06T13:42:06;0.80;;;0.80;;
12484;SDS011;6307;46.804;11.580;2022-07-06T13:44:34;0.90;;;0.80;;
12484;SDS011;6307;46.804;11.580;2022-07-06T13:47:00;1.50;;;0.77;;
12484;SDS011;6307;46.804;11.580;2022-07-06T13:49:26;0.87;;;0.70;;
12484;SDS011;6307;46.804;11.580;2022-07-06T13:51:52;1.50;;;0.60;;
12484;SDS011;6307;46.804;11.580;2022-07-06T13:54:20;3.93;;;0.70;;
12484;SDS011;6307;46.804;11.580;2022-07-06T13:56:46;1.07;;;0.80;;
12484;SDS011;6307;46.804;11.580;2022-07-06T13:59:12;0.90;;;0.73;;
12484;SDS011;6307;46.804;11.580;2022-07-06T14:01:38;0.73;;;0.60;;
12484;SDS011;6307;46.804;11.580;2022-07-06T14:04:04;0.57;;;0.57;;
12484;SDS011;6307;46.804;11.580;2022-07-06T14:06:31;1.00;;;0.67;;
12484;SDS011;6307;46.804;11.580;2022-07-06T14:08:57;1.30;;;0.70;;
12484;SDS011;6307;46.804;11.580;2022-07-06T14:11:24;1.90;;;0.80;;
12484;SDS011;6307;46.804;11.580;2022-07-06T14:13:50;1.20;;;0.70;;
12484;SDS011;6307;46.804;11.580;2022-07-06T14:16:16;0.90;;;0.67;;
12484;SDS011;6307;46.804;11.580;2022-07-06T14:18:42;1.40;;;0.83;;
12484;SDS011;6307;46.804;11.580;2022-07-06T14:21:08;0.40;;;0.40;;
12484;SDS011;6307;46.804;11.580;2022-07-06T14:23:35;1.20;;;0.90;;
12484;SDS011;6307;46.804;11.580;2022-07-06T14:26:01;1.60;;;0.80;;
12484;SDS011;6307;46.804;11.580;2022-07-06T14:28:27;0.70;;;0.70;;
12484;SDS011;6307;46.804;11.580;2022-07-06T14:30:53;0.70;;;0.70;;
12484;SDS011;6307;46.804;11.580;2022-07-06T14:33:19;2.97;;;0.80;;
12484;SDS011;6307;46.804;11.580;2022-07-06T14:35:46;2.43;;;1.03;;
12484;SDS011;6307;46.804;11.580;2022-07-06T14:38:15;1.10;;;0.70;;
12484;SDS011;6307;46.804;11.580;2022-07-06T14:40:43;1.43;;;0.63;;
12484;SDS011;6307;46.804;11.580;2022-07-06T14:43:10;2.40;;;0.90;;
12484;SDS011;6307;46.804;11.580;2022-07-06T14:45:37;0.70;;;0.63;;
12484;SDS011;6307;46.804;11.580;2022-07-06T14:48:03;1.27;;;0.90;;
12484;SDS011;6307;46.804;11.580;2022-07-06T14:50:30;2.80;;;1.00;;
12484;SDS011;6307;46.804;11.580;2022-07-06T14:52:57;0.60;;;0.60;;
12484;SDS011;6307;46.804;11.580;2022-07-06T14:55:23;0.83;;;0.70;;
12484;SDS011;6307;46.804;11.580;2022-07-06T14:57:50;1.07;;;0.70;;
12484;SDS011;6307;46.804;11.580;2022-07-06T15:00:16;1.83;;;0.70;;
12484;SDS011;6307;46.804;11.580;2022-07-06T15:02:42;2.20;;;0.80;;
12484;SDS011;6307;46.804;11.580;2022-07-06T15:05:09;1.77;;;0.70;;
12484;SDS011;6307;46.804;11.580;2022-07-06T15:07:37;0.93;;;0.70;;
12484;SDS011;6307;46.804;11.580;2022-07-06T15:10:04;0.87;;;0.70;;